createdAt,value
2018-12-06T00:00:15.617Z,20.90
2018-12-06T00:02:45.145Z,25.87
2018-12-06T00:05:14.881Z,29.20
2018-12-06T00:08:01.424Z,19.47
2018-12-06T00:10:30.959Z,26.03
2018-12-06T00:13:00.530Z,21.70
2018-12-06T00:15:30.487Z,13.27
2018-12-06T00:18:00.128Z,20.23
2018-12-06T00:20:29.649Z,16.40
2018-12-06T00:22:59.425Z,15.30
2018-12-06T00:25:29.030Z,17.90
2018-12-06T00:27:58.704Z,19.60
2018-12-06T00:30:45.996Z,19.13
2018-12-06T00:33:15.524Z,23.83
2018-12-06T00:35:45.045Z,22.83
2018-12-06T00:38:14.503Z,18.47
2018-12-06T00:40:44.011Z,21.60
2018-12-06T00:43:13.722Z,22.80
2018-12-06T00:45:43.219Z,18.80
2018-12-06T00:48:13.007Z,27.70
2018-12-06T00:50:42.478Z,18.73
2018-12-06T00:53:11.999Z,20.70
2018-12-06T00:55:41.529Z,19.80
2018-12-06T00:58:11.133Z,23.40
2018-12-06T01:00:40.566Z,21.50
2018-12-06T01:03:10.021Z,17.67
2018-12-06T01:05:39.560Z,18.33
2018-12-06T01:08:09.042Z,18.10
2018-12-06T01:10:38.508Z,20.77
2018-12-06T01:13:07.986Z,19.47
2018-12-06T01:15:37.474Z,23.10
2018-12-06T01:18:06.940Z,20.70
2018-12-06T01:20:36.440Z,19.27
2018-12-06T01:23:05.946Z,20.53
2018-12-06T01:25:35.547Z,18.00
2018-12-06T01:28:05.031Z,24.70
2018-12-06T01:30:34.587Z,22.97
2018-12-06T01:33:04.099Z,25.43
2018-12-06T01:35:33.575Z,21.47
2018-12-06T01:38:03.038Z,15.03
2018-12-06T01:40:32.609Z,17.93
2018-12-06T01:43:02.079Z,19.87
2018-12-06T01:45:31.619Z,17.43
2018-12-06T01:48:01.100Z,23.00
2018-12-06T01:50:30.561Z,36.67
2018-12-06T01:53:00.068Z,21.63
2018-12-06T01:55:29.638Z,21.63
2018-12-06T01:57:59.087Z,21.50
2018-12-06T02:00:28.681Z,30.30
2018-12-06T02:02:58.195Z,21.40
2018-12-06T02:05:27.752Z,18.40
2018-12-06T02:07:57.231Z,22.70
2018-12-06T02:10:26.696Z,17.57
2018-12-06T02:12:56.141Z,20.50
2018-12-06T02:15:25.679Z,17.07
2018-12-06T02:17:55.156Z,20.53
2018-12-06T02:20:24.649Z,21.90
2018-12-06T02:22:54.159Z,19.80
2018-12-06T02:25:23.642Z,18.53
2018-12-06T02:27:53.121Z,15.90
2018-12-06T02:30:22.732Z,22.93
2018-12-06T02:32:52.330Z,27.60
2018-12-06T02:35:21.906Z,23.10
2018-12-06T02:37:51.746Z,20.73
2018-12-06T02:40:21.281Z,26.70
2018-12-06T02:42:50.863Z,20.93
2018-12-06T02:45:20.301Z,24.70
2018-12-06T02:47:49.749Z,25.20
2018-12-06T02:50:19.314Z,22.27
2018-12-06T02:52:49.075Z,18.43
2018-12-06T02:55:18.544Z,18.50
2018-12-06T02:57:48.099Z,21.40
2018-12-06T03:00:17.620Z,26.97
2018-12-06T03:02:47.072Z,23.33
2018-12-06T03:05:16.649Z,17.90
2018-12-06T03:07:46.233Z,22.73
2018-12-06T03:10:15.675Z,24.93
2018-12-06T03:12:45.102Z,22.53
2018-12-06T03:15:14.605Z,22.30
2018-12-06T03:17:44.132Z,27.13
2018-12-06T03:20:13.711Z,25.83
2018-12-06T03:22:43.239Z,20.93
2018-12-06T03:25:12.822Z,25.83
2018-12-06T03:27:42.375Z,18.30
2018-12-06T03:30:11.914Z,22.00
2018-12-06T03:32:41.572Z,23.60
2018-12-06T03:35:10.767Z,31.33
2018-12-06T03:37:40.334Z,24.63
2018-12-06T03:40:10.013Z,23.43
2018-12-06T03:42:39.453Z,21.20
2018-12-06T03:45:09.361Z,24.37
2018-12-06T03:47:38.824Z,29.03
2018-12-06T03:50:08.389Z,28.47
2018-12-06T03:52:37.950Z,25.27
2018-12-06T03:55:07.543Z,32.40
2018-12-06T03:57:37.028Z,28.70
2018-12-06T04:00:07.066Z,34.47
2018-12-06T04:02:36.545Z,32.73
2018-12-06T04:05:06.523Z,32.33
2018-12-06T04:07:36.346Z,24.43
2018-12-06T04:10:07.369Z,25.30
2018-12-06T04:12:36.816Z,27.00
2018-12-06T04:15:07.159Z,31.43
2018-12-06T04:17:36.616Z,30.43
2018-12-06T04:20:06.667Z,31.97
2018-12-06T04:22:36.112Z,31.50
2018-12-06T04:25:05.703Z,36.20
2018-12-06T04:27:35.190Z,33.63
2018-12-06T04:30:04.973Z,41.27
2018-12-06T04:32:34.405Z,41.97
2018-12-06T04:35:04.578Z,34.63
2018-12-06T04:37:34.252Z,46.40
2018-12-06T04:40:03.744Z,42.67
2018-12-06T04:42:33.351Z,44.33
2018-12-06T04:45:02.923Z,40.80
2018-12-06T04:47:32.375Z,42.53
2018-12-06T04:50:01.836Z,38.40
2018-12-06T04:52:31.396Z,43.33
2018-12-06T04:55:00.847Z,41.13
2018-12-06T04:57:30.313Z,43.37
2018-12-06T04:59:59.853Z,39.10
2018-12-06T05:02:29.332Z,38.87
2018-12-06T05:04:58.914Z,39.30
2018-12-06T05:07:28.395Z,35.67
2018-12-06T05:09:57.868Z,35.50
2018-12-06T05:12:27.403Z,35.70
2018-12-06T05:14:56.859Z,31.93
2018-12-06T05:17:26.319Z,37.07
2018-12-06T05:19:55.853Z,37.73
2018-12-06T05:22:25.419Z,35.53
2018-12-06T05:24:54.875Z,42.00
2018-12-06T05:27:24.295Z,37.73
2018-12-06T05:29:53.736Z,39.83
2018-12-06T05:32:23.262Z,38.50
2018-12-06T05:34:52.875Z,40.07
2018-12-06T05:37:22.482Z,50.87
2018-12-06T05:39:52.006Z,40.07
2018-12-06T05:42:21.560Z,37.73
2018-12-06T05:44:51.017Z,37.60
2018-12-06T05:47:20.597Z,42.20
2018-12-06T05:49:50.178Z,31.43
2018-12-06T05:52:19.650Z,36.83
2018-12-06T05:54:49.147Z,31.60
2018-12-06T05:57:18.610Z,31.53
2018-12-06T05:59:48.078Z,30.67
2018-12-06T06:02:17.511Z,35.00
2018-12-06T06:04:47.038Z,31.47
2018-12-06T06:07:16.549Z,30.67
2018-12-06T06:09:46.069Z,29.10
2018-12-06T06:12:15.499Z,41.37
2018-12-06T06:14:44.952Z,33.97
2018-12-06T06:17:14.405Z,31.30
2018-12-06T06:19:43.859Z,38.97
2018-12-06T06:22:13.380Z,34.93
2018-12-06T06:24:42.835Z,31.93
2018-12-06T06:27:12.415Z,33.77
2018-12-06T06:29:48.515Z,31.37
2018-12-06T06:32:18.039Z,30.47
2018-12-06T06:34:47.547Z,35.40
2018-12-06T06:37:17.050Z,36.80
2018-12-06T06:39:46.592Z,27.37
2018-12-06T06:42:16.197Z,35.30
2018-12-06T06:44:45.651Z,33.90
2018-12-06T06:47:15.230Z,41.50
2018-12-06T06:49:44.712Z,33.57
2018-12-06T06:52:14.300Z,22.90
2018-12-06T06:54:43.832Z,27.90
2018-12-06T06:57:13.546Z,28.67
2018-12-06T06:59:43.038Z,30.77
2018-12-06T07:02:12.527Z,30.10
2018-12-06T07:04:41.969Z,28.80
2018-12-06T07:07:11.448Z,30.27
2018-12-06T07:09:41.048Z,26.43
2018-12-06T07:12:10.493Z,23.97
2018-12-06T07:14:39.962Z,25.67
2018-12-06T07:17:09.549Z,30.70
2018-12-06T07:19:39.023Z,26.37
2018-12-06T07:22:08.508Z,24.40
2018-12-06T07:24:37.964Z,21.30
2018-12-06T07:27:07.427Z,25.43
2018-12-06T07:29:36.902Z,29.00
2018-12-06T07:32:06.522Z,28.10
2018-12-06T07:34:36.007Z,24.13
2018-12-06T07:37:05.477Z,24.93
2018-12-06T07:39:35.067Z,26.43
2018-12-06T07:42:04.784Z,25.63
2018-12-06T07:44:34.267Z,27.10
2018-12-06T07:47:03.971Z,28.63
2018-12-06T07:49:33.443Z,23.50
2018-12-06T07:52:02.959Z,23.13
2018-12-06T07:54:32.423Z,28.80
2018-12-06T07:57:01.871Z,21.50
2018-12-06T07:59:31.335Z,21.23
2018-12-06T08:02:00.803Z,26.10
2018-12-06T08:04:30.264Z,22.33
2018-12-06T08:07:00.371Z,29.37
2018-12-06T08:09:30.043Z,27.33
2018-12-06T08:12:06.207Z,24.43
2018-12-06T08:14:35.674Z,22.87
2018-12-06T08:17:05.335Z,30.13
2018-12-06T08:19:41.239Z,21.50
2018-12-06T08:22:10.739Z,25.00
2018-12-06T08:24:40.240Z,21.47
2018-12-06T08:27:09.783Z,29.47
2018-12-06T08:29:39.237Z,22.57
2018-12-06T08:32:08.714Z,23.10
2018-12-06T08:34:38.267Z,23.13
2018-12-06T08:37:07.801Z,38.47
2018-12-06T08:40:04.831Z,37.43
2018-12-06T08:42:34.353Z,25.87
2018-12-06T08:45:04.047Z,32.43
2018-12-06T08:47:33.658Z,29.70
2018-12-06T08:50:03.257Z,28.13
2018-12-06T08:52:32.863Z,34.83
2018-12-06T08:55:02.504Z,27.83
2018-12-06T08:57:32.959Z,24.10
2018-12-06T09:00:02.641Z,23.90
2018-12-06T09:02:32.192Z,24.63
2018-12-06T09:05:01.798Z,29.50
2018-12-06T09:07:31.411Z,25.40
2018-12-06T09:10:00.958Z,25.57
2018-12-06T09:12:30.701Z,29.40
2018-12-06T09:15:00.204Z,26.57
2018-12-06T09:17:29.737Z,34.43
2018-12-06T09:19:59.223Z,31.63
2018-12-06T09:22:30.434Z,34.53
2018-12-06T09:25:00.000Z,27.77
2018-12-06T09:27:29.621Z,25.63
2018-12-06T09:29:59.075Z,23.70
2018-12-06T09:32:28.869Z,30.53
2018-12-06T09:34:58.341Z,18.23
2018-12-06T09:37:27.856Z,28.90
2018-12-06T09:40:00.432Z,27.87
2018-12-06T09:42:30.032Z,30.43
2018-12-06T09:44:59.544Z,26.63
2018-12-06T09:47:29.058Z,26.73
2018-12-06T09:49:58.527Z,24.43
2018-12-06T09:52:28.153Z,27.07
2018-12-06T09:54:57.691Z,25.53
2018-12-06T09:57:27.280Z,32.83
2018-12-06T09:59:56.787Z,27.20
2018-12-06T10:02:26.375Z,33.47
2018-12-06T10:05:02.657Z,33.60
2018-12-06T10:07:32.340Z,30.20
2018-12-06T10:10:01.827Z,27.00
2018-12-06T10:12:37.625Z,28.67
2018-12-06T10:15:07.392Z,33.97
2018-12-06T10:17:37.076Z,23.87
2018-12-06T10:20:09.510Z,25.27
2018-12-06T10:22:39.284Z,29.03
2018-12-06T10:25:09.140Z,25.70
2018-12-06T10:27:38.761Z,29.40
2018-12-06T10:30:08.864Z,29.67
2018-12-06T10:32:38.362Z,29.67
2018-12-06T10:35:07.988Z,25.47
2018-12-06T10:37:37.485Z,31.47
2018-12-06T10:40:10.906Z,28.30
2018-12-06T10:42:40.403Z,31.90
2018-12-06T10:45:09.890Z,28.40
2018-12-06T10:47:39.411Z,31.00
2018-12-06T10:50:09.057Z,30.97
2018-12-06T10:52:38.566Z,36.70
2018-12-06T10:55:08.150Z,27.90
2018-12-06T10:57:37.747Z,34.83
2018-12-06T11:00:09.848Z,24.00
2018-12-06T11:02:58.685Z,31.50
2018-12-06T11:05:28.457Z,28.73
2018-12-06T11:07:58.127Z,24.33
2018-12-06T11:10:27.615Z,32.67
2018-12-06T11:12:57.402Z,30.27
2018-12-06T11:15:26.993Z,31.57
2018-12-06T11:17:56.512Z,34.97
2018-12-06T11:20:25.993Z,33.40
2018-12-06T11:22:56.030Z,34.83
2018-12-06T11:25:26.343Z,33.63
2018-12-06T11:27:55.823Z,22.20
2018-12-06T11:30:25.326Z,26.40
2018-12-06T11:32:54.830Z,31.90
2018-12-06T11:35:24.573Z,26.87
2018-12-06T11:37:54.195Z,31.33
2018-12-06T11:40:23.778Z,30.33
2018-12-06T11:42:53.300Z,24.77
2018-12-06T11:45:22.836Z,30.83
2018-12-06T11:47:52.412Z,20.03
2018-12-06T11:50:22.235Z,23.30
2018-12-06T11:52:53.167Z,22.37
2018-12-06T11:55:22.946Z,18.73
2018-12-06T11:57:52.783Z,17.50
2018-12-06T12:00:22.294Z,18.83
2018-12-06T12:02:51.764Z,19.40
2018-12-06T12:05:21.252Z,18.33
2018-12-06T12:07:50.759Z,24.33
2018-12-06T12:10:20.249Z,21.67
2018-12-06T12:12:49.777Z,22.30
2018-12-06T12:15:19.300Z,18.20
2018-12-06T12:17:49.010Z,27.60
2018-12-06T12:20:18.476Z,24.23
2018-12-06T12:22:48.138Z,23.33
2018-12-06T12:25:18.566Z,23.47
2018-12-06T12:27:48.126Z,21.30
2018-12-06T12:30:17.658Z,24.97
2018-12-06T12:32:47.153Z,26.83
2018-12-06T12:35:16.807Z,20.83
2018-12-06T12:37:46.628Z,35.57
2018-12-06T12:40:16.270Z,24.43
2018-12-06T12:42:45.752Z,26.07
2018-12-06T12:45:15.696Z,18.93
2018-12-06T12:47:45.352Z,23.00
2018-12-06T12:50:14.981Z,29.70
2018-12-06T12:52:44.556Z,25.93
2018-12-06T12:55:14.256Z,25.20
2018-12-06T12:57:43.744Z,23.67
2018-12-06T13:00:13.487Z,23.33
2018-12-06T13:02:43.217Z,23.23
2018-12-06T13:05:12.742Z,21.77
2018-12-06T13:07:42.303Z,23.00
2018-12-06T13:10:11.977Z,19.87
2018-12-06T13:12:41.518Z,19.53
2018-12-06T13:15:11.169Z,20.37
2018-12-06T13:17:40.713Z,20.27
2018-12-06T13:20:10.255Z,18.00
2018-12-06T13:22:39.859Z,17.97
2018-12-06T13:25:09.527Z,17.10
2018-12-06T13:27:39.311Z,23.13
2018-12-06T13:30:09.160Z,14.90
2018-12-06T13:32:38.672Z,22.37
2018-12-06T13:35:08.210Z,19.63
2018-12-06T13:37:37.716Z,16.00
2018-12-06T13:40:07.670Z,20.37
2018-12-06T13:42:37.175Z,18.30
2018-12-06T13:45:07.127Z,19.50
2018-12-06T13:47:36.776Z,22.97
2018-12-06T13:50:07.216Z,16.90
2018-12-06T13:52:36.816Z,19.17
2018-12-06T13:55:11.065Z,13.53
2018-12-06T13:57:40.615Z,19.47
2018-12-06T14:00:10.238Z,18.00
2018-12-06T14:02:39.725Z,18.87
2018-12-06T14:05:09.356Z,14.57
2018-12-06T14:07:39.013Z,16.27
2018-12-06T14:10:08.490Z,15.43
2018-12-06T14:12:38.080Z,14.87
2018-12-06T14:15:07.939Z,16.60
2018-12-06T14:17:37.483Z,16.17
2018-12-06T14:20:13.061Z,13.40
2018-12-06T14:22:42.782Z,12.63
2018-12-06T14:25:12.268Z,16.20
2018-12-06T14:27:41.948Z,14.53
2018-12-06T14:30:11.875Z,16.90
2018-12-06T14:32:41.504Z,12.33
2018-12-06T14:35:11.228Z,14.03
2018-12-06T14:37:40.899Z,19.77
2018-12-06T14:40:10.414Z,17.20
2018-12-06T14:42:39.953Z,15.13
2018-12-06T14:45:09.870Z,15.03
2018-12-06T14:47:39.427Z,12.73
2018-12-06T14:50:09.477Z,15.20
2018-12-06T14:52:39.119Z,17.70
2018-12-06T14:55:08.831Z,10.70
2018-12-06T14:57:38.472Z,10.37
2018-12-06T15:00:10.195Z,12.57
2018-12-06T15:02:39.923Z,11.87
2018-12-06T15:05:11.828Z,14.70
2018-12-06T15:07:41.489Z,11.20
2018-12-06T15:10:11.472Z,14.40
2018-12-06T15:12:41.111Z,15.03
2018-12-06T15:15:10.759Z,15.03
2018-12-06T15:17:40.330Z,18.77
2018-12-06T15:24:03.026Z,11.40
2018-12-06T15:26:32.603Z,16.20
2018-12-06T15:29:02.109Z,18.97
2018-12-06T15:31:31.766Z,12.67
2018-12-06T15:34:01.261Z,14.73
2018-12-06T15:36:30.866Z,10.47
2018-12-06T15:39:00.438Z,12.17
2018-12-06T15:41:30.070Z,10.17
2018-12-06T15:43:59.586Z,7.70
2018-12-06T15:46:29.265Z,14.33
2018-12-06T15:48:58.763Z,15.53
2018-12-06T15:51:28.412Z,12.27
2018-12-06T15:53:58.129Z,13.03
2018-12-06T15:56:27.631Z,11.83
2018-12-06T15:58:57.308Z,9.43
2018-12-06T16:01:26.828Z,12.57
2018-12-06T16:03:56.514Z,14.30
2018-12-06T16:06:26.216Z,9.43
2018-12-06T16:08:55.922Z,15.63
2018-12-06T16:11:25.615Z,15.50
2018-12-06T16:13:55.093Z,13.30
2018-12-06T16:16:24.786Z,15.03
2018-12-06T16:18:54.881Z,15.33
2018-12-06T16:21:24.499Z,14.33
2018-12-06T16:23:54.016Z,13.70
2018-12-06T16:26:23.668Z,11.23
2018-12-06T16:28:53.175Z,8.97
2018-12-06T16:31:22.845Z,17.83
2018-12-06T16:33:52.346Z,9.93
2018-12-06T16:36:21.861Z,13.70
2018-12-06T16:38:51.414Z,9.47
2018-12-06T16:41:20.961Z,11.00
2018-12-06T16:43:50.585Z,11.77
2018-12-06T16:46:20.224Z,10.10
2018-12-06T16:48:50.004Z,12.07
2018-12-06T16:51:19.529Z,10.50
2018-12-06T16:53:49.229Z,8.07
2018-12-06T16:56:19.049Z,10.40
2018-12-06T16:58:48.631Z,13.47
2018-12-06T17:01:18.731Z,14.50
2018-12-06T17:03:48.678Z,9.13
2018-12-06T17:06:18.303Z,12.07
2018-12-06T17:08:47.861Z,10.20
2018-12-06T17:11:17.837Z,10.03
2018-12-06T17:13:47.409Z,7.80
2018-12-06T17:16:17.068Z,12.23
2018-12-06T17:18:46.613Z,17.90
2018-12-06T17:21:16.113Z,10.50
2018-12-06T17:23:45.633Z,15.83
2018-12-06T17:26:15.298Z,7.83
2018-12-06T17:28:44.801Z,17.27
2018-12-06T17:31:14.358Z,14.63
2018-12-06T17:33:44.067Z,15.60
2018-12-06T17:36:13.669Z,7.93
2018-12-06T17:38:43.439Z,13.20
2018-12-06T17:41:13.422Z,9.20
2018-12-06T17:43:42.962Z,15.83
2018-12-06T17:46:12.584Z,11.97
2018-12-06T17:48:42.697Z,12.27
2018-12-06T17:51:12.339Z,10.63
2018-12-06T17:53:42.338Z,12.93
2018-12-06T17:56:12.328Z,9.07
2018-12-06T17:58:42.333Z,8.60
2018-12-06T18:01:11.930Z,12.43
2018-12-06T18:03:41.504Z,10.30
2018-12-06T18:06:11.089Z,10.23
2018-12-06T18:08:40.970Z,16.63
2018-12-06T18:11:10.486Z,18.13
2018-12-06T18:13:40.519Z,11.93
2018-12-06T18:16:10.207Z,12.03
2018-12-06T18:18:40.542Z,12.90
2018-12-06T18:21:10.507Z,12.03
2018-12-06T18:23:40.144Z,14.13
2018-12-06T18:26:09.864Z,15.70
2018-12-06T18:28:39.441Z,16.10
2018-12-06T18:31:09.093Z,10.80
2018-12-06T18:33:38.702Z,15.37
2018-12-06T18:36:08.270Z,8.83
2018-12-06T18:38:38.073Z,12.13
2018-12-06T18:41:07.929Z,9.83
2018-12-06T18:43:37.572Z,13.00
2018-12-06T18:46:07.393Z,12.00
2018-12-06T18:48:37.438Z,11.83
2018-12-06T18:51:06.995Z,7.30
2018-12-06T18:53:37.185Z,17.00
2018-12-06T18:56:06.916Z,9.70
2018-12-06T18:58:36.899Z,12.20
2018-12-06T19:01:06.665Z,13.87
2018-12-06T19:03:36.476Z,10.57
2018-12-06T19:06:07.537Z,10.40
2018-12-06T19:08:37.364Z,10.63
2018-12-06T19:11:07.287Z,8.90
2018-12-06T19:13:37.049Z,17.50
2018-12-06T19:16:06.568Z,17.33
2018-12-06T19:18:36.714Z,8.10
2018-12-06T19:21:06.330Z,12.53
2018-12-06T19:23:36.882Z,10.90
2018-12-06T19:26:06.969Z,15.67
2018-12-06T19:28:36.690Z,17.23
2018-12-06T19:31:06.578Z,19.63
2018-12-06T19:33:36.552Z,11.53
2018-12-06T19:36:06.120Z,11.10
2018-12-06T19:38:36.467Z,11.83
2018-12-06T19:41:07.270Z,15.60
2018-12-06T19:43:37.456Z,14.53
2018-12-06T19:46:07.727Z,10.23
2018-12-06T19:48:37.570Z,11.73
2018-12-06T19:51:07.663Z,12.90
2018-12-06T19:53:37.911Z,13.57
2018-12-06T19:56:07.896Z,17.30
2018-12-06T19:58:37.531Z,16.50
2018-12-06T20:01:07.280Z,9.90
2018-12-06T20:03:37.205Z,17.10
2018-12-06T20:06:07.157Z,10.90
2018-12-06T20:08:37.763Z,24.33
2018-12-06T20:11:07.748Z,11.70
2018-12-06T20:13:37.680Z,13.20
2018-12-06T20:16:07.684Z,15.53
2018-12-06T20:18:37.545Z,14.07
2018-12-06T20:21:07.299Z,8.20
2018-12-06T20:23:37.249Z,17.00
2018-12-06T20:26:07.218Z,11.27
2018-12-06T20:28:37.409Z,17.43
2018-12-06T20:31:07.025Z,19.13
2018-12-06T20:33:37.469Z,27.73
2018-12-06T20:36:08.382Z,14.90
2018-12-06T20:38:38.562Z,12.53
2018-12-06T20:41:08.496Z,17.80
2018-12-06T20:43:38.507Z,11.23
2018-12-06T20:46:08.179Z,12.03
2018-12-06T20:48:38.558Z,12.23
2018-12-06T20:51:08.325Z,10.50
2018-12-06T20:53:37.995Z,14.60
2018-12-06T20:56:07.531Z,14.23
2018-12-06T20:58:37.193Z,11.50
2018-12-06T21:01:13.519Z,10.60
2018-12-06T21:03:43.070Z,8.37
2018-12-06T21:06:12.910Z,15.53
2018-12-06T21:08:42.516Z,11.27
2018-12-06T21:11:12.055Z,7.50
2018-12-06T21:13:41.745Z,9.40
2018-12-06T21:16:11.941Z,17.67
2018-12-06T21:18:42.110Z,8.87
2018-12-06T21:21:11.888Z,12.73
2018-12-06T21:23:41.534Z,13.57
2018-12-06T21:26:11.022Z,11.80
2018-12-06T21:28:40.499Z,9.43
2018-12-06T21:31:10.219Z,12.83
2018-12-06T21:33:39.789Z,10.73
2018-12-06T21:36:09.419Z,6.70
2018-12-06T21:38:38.936Z,10.40
2018-12-06T21:41:08.575Z,10.40
2018-12-06T21:43:38.096Z,13.70
2018-12-06T21:46:08.135Z,9.80
2018-12-06T21:48:37.613Z,10.00
2018-12-06T21:51:07.166Z,7.50
2018-12-06T21:53:36.925Z,10.47
2018-12-06T21:56:06.447Z,8.57
2018-12-06T21:58:42.815Z,15.20
2018-12-06T22:01:12.386Z,10.10
2018-12-06T22:03:42.005Z,14.33
2018-12-06T22:06:11.694Z,8.93
2018-12-06T22:08:41.302Z,27.03
2018-12-06T22:11:10.873Z,10.17
2018-12-06T22:13:40.675Z,11.73
2018-12-06T22:16:10.215Z,14.80
2018-12-06T22:18:39.859Z,9.20
2018-12-06T22:21:09.458Z,10.70
2018-12-06T22:23:38.973Z,11.30
2018-12-06T22:26:08.725Z,17.50
2018-12-06T22:28:38.477Z,5.70
2018-12-06T22:31:08.071Z,8.83
2018-12-06T22:33:37.543Z,6.23
2018-12-06T22:36:08.179Z,11.13
2018-12-06T22:38:37.821Z,16.20
2018-12-06T22:41:07.852Z,10.87
2018-12-06T22:43:37.479Z,9.20
2018-12-06T22:46:07.147Z,7.50
2018-12-06T22:48:36.641Z,7.77
2018-12-06T22:51:06.338Z,13.33
2018-12-06T22:53:35.860Z,5.70
2018-12-06T22:56:05.610Z,12.90
2018-12-06T22:58:35.283Z,6.53
2018-12-06T23:01:08.479Z,7.60
2018-12-06T23:03:38.109Z,10.27
2018-12-06T23:06:07.949Z,10.63
2018-12-06T23:08:37.431Z,8.30
2018-12-06T23:11:06.898Z,6.37
2018-12-06T23:13:36.405Z,7.77
2018-12-06T23:16:06.318Z,8.20
2018-12-06T23:18:35.831Z,6.80
2018-12-06T23:21:05.432Z,7.50
2018-12-06T23:23:35.160Z,9.77
2018-12-06T23:26:04.631Z,5.23
2018-12-06T23:28:34.117Z,9.23
2018-12-06T23:31:03.683Z,6.07
2018-12-06T23:33:33.167Z,7.13
2018-12-06T23:36:02.662Z,9.50
2018-12-06T23:38:32.139Z,8.60
2018-12-06T23:41:01.757Z,19.33
2018-12-06T23:43:31.506Z,10.10
2018-12-06T23:46:01.185Z,7.40
2018-12-06T23:48:30.690Z,3.57
2018-12-06T23:51:16.864Z,6.00
2018-12-06T23:53:50.642Z,10.97
2018-12-06T23:56:20.287Z,4.10
2018-12-06T23:58:50.099Z,5.70
